createdAt,value
2017-12-03T00:00:10.716Z,28.50
2017-12-03T00:02:39.008Z,33.55
2017-12-03T00:05:07.289Z,29.23
2017-12-03T00:07:35.972Z,26.50
2017-12-03T00:10:04.273Z,34.50
2017-12-03T00:12:32.557Z,30.23
2017-12-03T00:15:00.862Z,28.03
2017-12-03T00:17:29.110Z,29.87
2017-12-03T00:19:57.399Z,26.58
2017-12-03T00:22:26.465Z,24.17
2017-12-03T00:24:54.744Z,21.03
2017-12-03T00:27:23.036Z,23.10
2017-12-03T00:29:51.329Z,25.10
2017-12-03T00:32:19.612Z,20.07
2017-12-03T00:34:47.920Z,27.40
2017-12-03T00:37:16.212Z,21.10
2017-12-03T00:39:44.521Z,21.77
2017-12-03T00:42:12.828Z,23.80
2017-12-03T00:44:41.233Z,30.27
2017-12-03T00:47:09.642Z,21.33
2017-12-03T00:49:38.167Z,21.43
2017-12-03T00:52:06.879Z,19.47
2017-12-03T00:54:35.192Z,20.37
2017-12-03T00:57:03.656Z,20.17
2017-12-03T00:59:32.182Z,24.13
2017-12-03T01:02:00.629Z,21.00
2017-12-03T01:04:28.984Z,17.23
2017-12-03T01:06:57.308Z,16.37
2017-12-03T01:09:26.366Z,15.87
2017-12-03T01:11:54.707Z,12.63
2017-12-03T01:14:22.999Z,13.00
2017-12-03T01:16:51.277Z,13.13
2017-12-03T01:19:19.592Z,14.60
2017-12-03T01:21:48.877Z,11.70
2017-12-03T01:24:17.181Z,11.95
2017-12-03T01:26:45.496Z,14.02
2017-12-03T01:29:13.789Z,10.00
2017-12-03T01:31:42.082Z,12.40
2017-12-03T01:34:10.374Z,14.90
2017-12-03T01:36:38.657Z,13.17
2017-12-03T01:39:07.709Z,11.83
2017-12-03T01:41:35.986Z,8.03
2017-12-03T01:44:04.265Z,8.40
2017-12-03T01:46:32.548Z,9.80
2017-12-03T01:49:00.825Z,9.33
2017-12-03T01:51:29.114Z,8.60
2017-12-03T01:53:57.408Z,10.63
2017-12-03T01:56:25.689Z,9.40
2017-12-03T01:58:54.760Z,13.20
2017-12-03T02:01:23.044Z,9.00
2017-12-03T02:03:51.337Z,10.30
2017-12-03T02:06:20.464Z,13.60
2017-12-03T02:08:49.909Z,10.05
2017-12-03T02:11:18.197Z,9.13
2017-12-03T02:13:46.485Z,10.17
2017-12-03T02:16:15.547Z,10.50
2017-12-03T02:18:43.849Z,11.23
2017-12-03T02:21:12.136Z,11.63
2017-12-03T02:23:40.438Z,9.47
2017-12-03T02:26:08.720Z,12.03
2017-12-03T02:28:36.997Z,10.23
2017-12-03T02:31:05.277Z,8.82
2017-12-03T02:33:33.561Z,9.57
2017-12-03T02:36:01.846Z,8.77
2017-12-03T02:38:30.120Z,9.60
2017-12-03T02:40:58.401Z,8.83
2017-12-03T02:43:26.680Z,8.00
2017-12-03T02:45:54.952Z,9.43
2017-12-03T02:48:23.236Z,8.70
2017-12-03T02:50:51.510Z,7.90
2017-12-03T02:53:19.788Z,7.70
2017-12-03T02:55:48.068Z,10.13
2017-12-03T02:58:16.352Z,9.60
2017-12-03T03:00:44.628Z,8.10
2017-12-03T03:03:12.905Z,11.07
2017-12-03T03:05:41.200Z,10.53
2017-12-03T03:08:10.248Z,11.17
2017-12-03T03:10:38.532Z,13.83
2017-12-03T03:13:06.830Z,13.20
2017-12-03T03:15:35.104Z,12.57
2017-12-03T03:18:04.132Z,12.70
2017-12-03T03:20:32.408Z,13.00
2017-12-03T03:23:01.470Z,11.23
2017-12-03T03:25:29.747Z,13.20
2017-12-03T03:27:58.036Z,12.93
2017-12-03T03:30:26.325Z,18.03
2017-12-03T03:32:54.623Z,13.45
2017-12-03T03:35:22.900Z,10.80
2017-12-03T03:37:51.190Z,10.67
2017-12-03T03:40:19.468Z,12.97
2017-12-03T03:42:47.749Z,12.47
2017-12-03T03:45:16.036Z,14.20
2017-12-03T03:47:44.332Z,13.20
2017-12-03T03:50:12.608Z,13.33
2017-12-03T03:52:40.896Z,19.20
2017-12-03T03:55:09.180Z,16.27
2017-12-03T03:57:37.460Z,12.53
2017-12-03T04:00:06.504Z,13.23
2017-12-03T04:02:34.788Z,14.23
2017-12-03T04:05:03.059Z,13.15
2017-12-03T04:07:31.340Z,9.83
2017-12-03T04:09:59.623Z,13.03
2017-12-03T04:12:27.905Z,12.30
2017-12-03T04:14:56.196Z,13.05
2017-12-03T04:17:24.474Z,13.30
2017-12-03T04:19:52.761Z,15.10
2017-12-03T04:22:21.037Z,11.43
2017-12-03T04:24:50.612Z,13.05
2017-12-03T04:27:18.894Z,16.07
2017-12-03T04:29:47.179Z,15.00
2017-12-03T04:32:15.453Z,14.27
2017-12-03T04:34:43.742Z,14.27
2017-12-03T04:37:12.038Z,13.03
2017-12-03T04:39:40.312Z,15.60
2017-12-03T04:42:08.597Z,16.70
2017-12-03T04:44:36.887Z,20.10
2017-12-03T04:47:05.170Z,14.07
2017-12-03T04:49:33.456Z,12.30
2017-12-03T04:52:01.750Z,15.67
2017-12-03T04:54:30.031Z,18.40
2017-12-03T04:56:58.320Z,15.93
2017-12-03T04:59:26.604Z,20.53
2017-12-03T05:01:54.889Z,17.50
2017-12-03T05:04:23.193Z,17.00
2017-12-03T05:06:51.478Z,18.00
2017-12-03T05:09:19.760Z,19.50
2017-12-03T05:11:48.050Z,18.33
2017-12-03T05:14:16.329Z,20.63
2017-12-03T05:16:44.614Z,17.67
2017-12-03T05:19:12.891Z,15.50
2017-12-03T05:21:41.171Z,14.82
2017-12-03T05:24:09.453Z,13.47
2017-12-03T05:26:40.726Z,13.30
2017-12-03T05:29:10.284Z,14.60
2017-12-03T05:31:38.580Z,11.40
2017-12-03T05:34:06.856Z,14.83
2017-12-03T05:36:35.153Z,14.93
2017-12-03T05:39:03.436Z,14.20
2017-12-03T05:41:32.484Z,13.93
2017-12-03T05:44:00.758Z,16.92
2017-12-03T05:46:29.037Z,15.77
2017-12-03T05:48:57.322Z,13.50
2017-12-03T05:51:25.604Z,13.73
2017-12-03T05:53:53.882Z,14.87
2017-12-03T05:56:22.177Z,13.50
2017-12-03T05:58:50.460Z,16.27
2017-12-03T06:01:19.504Z,13.07
2017-12-03T06:03:47.784Z,18.00
2017-12-03T06:06:16.064Z,12.53
2017-12-03T06:08:44.349Z,14.77
2017-12-03T06:11:12.626Z,13.53
2017-12-03T06:13:40.926Z,15.60
2017-12-03T06:16:09.668Z,13.80
2017-12-03T06:18:37.952Z,12.77
2017-12-03T06:21:06.232Z,14.43
2017-12-03T06:23:34.516Z,17.33
2017-12-03T06:26:02.809Z,16.43
2017-12-03T06:28:31.146Z,17.90
2017-12-03T06:30:59.425Z,14.53
2017-12-03T06:33:27.696Z,17.27
2017-12-03T06:35:55.980Z,20.53
2017-12-03T06:38:24.252Z,16.20
2017-12-03T06:40:52.529Z,18.73
2017-12-03T06:43:20.813Z,16.77
2017-12-03T06:45:49.865Z,21.20
2017-12-03T06:48:18.150Z,17.73
2017-12-03T06:50:46.434Z,19.90
2017-12-03T06:53:14.724Z,22.57
2017-12-03T06:55:43.000Z,18.10
2017-12-03T06:58:11.284Z,21.67
2017-12-03T07:00:39.577Z,19.03
2017-12-03T07:03:07.876Z,20.00
2017-12-03T07:05:36.169Z,20.87
2017-12-03T07:08:04.472Z,22.83
2017-12-03T07:10:32.753Z,19.57
2017-12-03T07:13:01.065Z,23.50
2017-12-03T07:15:29.371Z,19.20
2017-12-03T07:17:57.657Z,22.40
2017-12-03T07:20:26.716Z,21.40
2017-12-03T07:22:56.084Z,23.87
2017-12-03T07:25:24.361Z,19.70
2017-12-03T07:27:52.649Z,19.27
2017-12-03T07:30:20.932Z,18.70
2017-12-03T07:32:49.220Z,19.33
2017-12-03T07:35:18.253Z,20.57
2017-12-03T07:37:46.548Z,21.00
2017-12-03T07:40:14.840Z,20.93
2017-12-03T07:42:43.126Z,18.12
2017-12-03T07:45:11.412Z,17.67
2017-12-03T07:47:39.704Z,20.23
2017-12-03T07:50:07.993Z,14.93
2017-12-03T07:52:36.277Z,19.10
2017-12-03T07:55:04.572Z,22.62
2017-12-03T07:57:32.863Z,18.83
2017-12-03T08:00:01.150Z,16.55
2017-12-03T08:02:29.439Z,18.60
2017-12-03T08:04:57.722Z,14.63
2017-12-03T08:07:26.009Z,16.37
2017-12-03T08:09:54.296Z,19.33
2017-12-03T08:12:22.589Z,18.27
2017-12-03T08:14:51.644Z,20.33
2017-12-03T08:17:19.947Z,17.70
2017-12-03T08:19:48.251Z,15.90
2017-12-03T08:22:16.528Z,18.07
2017-12-03T08:24:44.845Z,17.17
2017-12-03T08:27:13.141Z,16.20
2017-12-03T08:29:42.294Z,15.40
2017-12-03T08:32:10.576Z,17.00
2017-12-03T08:34:38.871Z,13.20
2017-12-03T08:37:07.164Z,16.87
2017-12-03T08:39:35.483Z,19.00
2017-12-03T08:42:03.775Z,22.33
2017-12-03T08:44:32.094Z,18.97
2017-12-03T08:47:01.842Z,15.30
2017-12-03T08:49:30.884Z,17.90
2017-12-03T08:51:59.170Z,23.30
2017-12-03T08:54:27.472Z,22.30
2017-12-03T08:56:55.775Z,22.97
2017-12-03T08:59:24.066Z,13.07
2017-12-03T09:01:52.856Z,17.63
2017-12-03T09:04:21.148Z,13.30
2017-12-03T09:06:49.428Z,15.60
2017-12-03T09:09:17.710Z,12.77
2017-12-03T09:11:46.062Z,16.33
2017-12-03T09:14:14.356Z,13.70
2017-12-03T09:16:43.125Z,17.65
2017-12-03T09:19:11.417Z,16.00
2017-12-03T09:21:39.705Z,17.73
2017-12-03T09:24:07.997Z,16.90
2017-12-03T09:26:36.294Z,17.83
2017-12-03T09:29:04.581Z,19.03
2017-12-03T09:31:33.632Z,18.93
2017-12-03T09:34:01.914Z,15.33
2017-12-03T09:36:30.205Z,14.13
2017-12-03T09:38:58.496Z,16.07
2017-12-03T09:41:26.782Z,14.47
2017-12-03T09:43:55.084Z,17.00
2017-12-03T09:46:23.379Z,14.67
2017-12-03T09:48:51.660Z,15.73
2017-12-03T09:51:19.955Z,13.30
2017-12-03T09:53:48.251Z,14.57
2017-12-03T09:56:18.201Z,14.70
2017-12-03T09:58:46.485Z,14.90
2017-12-03T10:01:14.777Z,12.10
2017-12-03T10:03:43.077Z,13.77
2017-12-03T10:06:11.355Z,14.27
2017-12-03T10:08:39.636Z,12.43
2017-12-03T10:11:09.205Z,13.88
2017-12-03T10:13:37.477Z,14.03
2017-12-03T10:16:05.781Z,12.83
2017-12-03T10:18:34.079Z,16.42
2017-12-03T10:21:02.369Z,14.37
2017-12-03T10:23:30.656Z,12.50
2017-12-03T10:25:58.954Z,13.90
2017-12-03T10:28:27.252Z,11.70
2017-12-03T10:30:55.549Z,14.53
2017-12-03T10:33:23.866Z,13.47
2017-12-03T10:35:52.913Z,13.45
2017-12-03T10:38:21.198Z,10.30
2017-12-03T10:40:49.476Z,13.03
2017-12-03T10:43:17.809Z,13.13
2017-12-03T10:45:46.919Z,8.75
2017-12-03T10:48:15.209Z,13.93
2017-12-03T10:50:43.487Z,10.83
2017-12-03T10:53:11.772Z,11.87
2017-12-03T10:55:40.316Z,12.20
2017-12-03T10:58:08.832Z,13.13
2017-12-03T11:00:38.786Z,14.63
2017-12-03T11:03:08.442Z,13.67
2017-12-03T11:05:36.734Z,12.37
2017-12-03T11:08:05.029Z,15.57
2017-12-03T11:10:33.340Z,13.50
2017-12-03T11:13:01.628Z,16.63
2017-12-03T11:15:29.952Z,14.07
2017-12-03T11:17:58.942Z,15.13
2017-12-03T11:20:27.275Z,12.23
2017-12-03T11:22:55.552Z,14.80
2017-12-03T11:25:23.843Z,14.07
2017-12-03T11:27:53.812Z,11.37
2017-12-03T11:30:22.866Z,12.93
2017-12-03T11:32:51.145Z,8.57
2017-12-03T11:35:20.492Z,11.12
2017-12-03T11:37:50.565Z,12.50
2017-12-03T11:40:18.982Z,11.90
2017-12-03T11:42:48.945Z,14.50
2017-12-03T11:45:17.220Z,10.70
2017-12-03T11:47:45.709Z,12.00
2017-12-03T11:50:13.992Z,11.93
2017-12-03T11:52:42.360Z,11.13
2017-12-03T11:55:10.649Z,12.65
2017-12-03T11:57:38.941Z,11.90
2017-12-03T12:00:07.230Z,10.33
2017-12-03T12:02:36.277Z,10.90
2017-12-03T12:05:04.578Z,10.37
2017-12-03T12:07:32.888Z,10.63
2017-12-03T12:10:01.180Z,12.88
2017-12-03T12:12:29.450Z,10.10
2017-12-03T12:14:57.731Z,9.10
2017-12-03T12:17:26.025Z,14.35
2017-12-03T12:19:54.310Z,12.77
2017-12-03T12:22:22.594Z,11.90
2017-12-03T12:24:50.869Z,11.00
2017-12-03T12:27:19.157Z,13.03
2017-12-03T12:29:47.514Z,15.37
2017-12-03T12:32:15.809Z,12.67
2017-12-03T12:34:44.105Z,13.87
2017-12-03T12:37:12.445Z,14.70
2017-12-03T12:39:40.728Z,11.60
2017-12-03T12:42:09.022Z,13.37
2017-12-03T12:44:37.411Z,10.50
2017-12-03T12:47:05.702Z,11.43
2017-12-03T12:49:33.993Z,11.83
2017-12-03T12:52:02.325Z,12.17
2017-12-03T12:54:30.613Z,14.03
2017-12-03T12:56:58.910Z,12.10
2017-12-03T12:59:27.256Z,12.55
2017-12-03T13:01:55.622Z,12.37
2017-12-03T13:04:23.909Z,13.83
2017-12-03T13:06:52.229Z,10.47
2017-12-03T13:09:21.279Z,9.13
2017-12-03T13:11:49.565Z,10.57
2017-12-03T13:14:17.880Z,9.60
2017-12-03T13:16:47.193Z,11.60
2017-12-03T13:19:16.974Z,11.52
2017-12-03T13:21:46.024Z,9.07
2017-12-03T13:24:14.316Z,10.00
2017-12-03T13:26:43.249Z,8.73
2017-12-03T13:29:12.302Z,9.80
2017-12-03T13:31:40.586Z,10.73
2017-12-03T13:34:08.893Z,16.23
2017-12-03T13:36:37.183Z,11.45
2017-12-03T13:39:05.466Z,10.93
2017-12-03T13:41:33.760Z,10.80
2017-12-03T13:44:02.049Z,11.70
2017-12-03T13:46:30.369Z,13.50
2017-12-03T13:48:58.737Z,11.30
2017-12-03T13:51:27.057Z,10.50
2017-12-03T13:53:55.351Z,14.63
2017-12-03T13:56:23.635Z,13.90
2017-12-03T13:58:51.933Z,14.60
2017-12-03T14:01:20.252Z,12.82
2017-12-03T14:03:48.551Z,14.47
2017-12-03T14:06:16.832Z,10.37
2017-12-03T14:08:45.148Z,12.73
2017-12-03T14:11:13.641Z,11.50
2017-12-03T14:13:41.935Z,11.60
2017-12-03T14:16:10.266Z,13.05
2017-12-03T14:18:38.588Z,12.07
2017-12-03T14:21:06.885Z,10.93
2017-12-03T14:23:35.193Z,10.68
2017-12-03T14:26:03.518Z,9.80
2017-12-03T14:28:31.845Z,9.70
2017-12-03T14:31:00.153Z,13.73
2017-12-03T14:33:29.228Z,14.63
2017-12-03T14:35:57.543Z,11.30
2017-12-03T14:38:26.580Z,9.47
2017-12-03T14:40:54.860Z,9.93
2017-12-03T14:43:23.209Z,11.95
2017-12-03T14:45:51.566Z,8.80
2017-12-03T14:48:19.938Z,10.17
2017-12-03T14:50:48.244Z,10.57
2017-12-03T14:53:16.541Z,12.17
2017-12-03T14:55:44.832Z,27.87
2017-12-03T14:58:13.764Z,13.63
2017-12-03T15:00:42.058Z,16.63
2017-12-03T15:03:10.376Z,8.83
2017-12-03T15:05:38.677Z,11.77
2017-12-03T15:08:07.745Z,10.77
2017-12-03T15:10:36.048Z,7.55
2017-12-03T15:13:05.227Z,7.97
2017-12-03T15:15:33.697Z,8.55
2017-12-03T15:18:02.156Z,9.20
2017-12-03T15:20:30.489Z,8.23
2017-12-03T15:22:59.649Z,14.80
2017-12-03T15:25:27.994Z,8.57
2017-12-03T15:27:56.282Z,6.80
2017-12-03T15:30:24.593Z,12.40
2017-12-03T15:32:52.889Z,8.40
2017-12-03T15:35:21.364Z,9.32
2017-12-03T15:37:49.727Z,6.83
2017-12-03T15:40:18.243Z,7.00
2017-12-03T15:42:46.577Z,10.47
2017-12-03T15:45:16.187Z,8.43
2017-12-03T15:47:44.489Z,8.33
2017-12-03T15:50:12.861Z,10.30
2017-12-03T15:52:41.152Z,7.17
2017-12-03T15:55:09.447Z,6.73
2017-12-03T15:57:37.965Z,9.73
2017-12-03T16:00:06.297Z,11.80
2017-12-03T16:02:34.675Z,7.17
2017-12-03T16:05:03.207Z,5.30
2017-12-03T16:07:31.641Z,6.80
2017-12-03T16:10:01.347Z,9.70
2017-12-03T16:12:29.863Z,9.67
2017-12-03T16:14:58.224Z,5.93
2017-12-03T16:17:26.695Z,5.10
2017-12-03T16:19:55.379Z,5.57
2017-12-03T16:22:24.224Z,5.70
2017-12-03T16:24:53.863Z,18.43
2017-12-03T16:27:22.389Z,5.03
2017-12-03T16:29:52.134Z,6.00
2017-12-03T16:32:21.353Z,5.90
2017-12-03T16:34:50.911Z,5.40
2017-12-03T16:37:20.081Z,4.77
2017-12-03T16:39:49.778Z,4.47
2017-12-03T16:42:19.674Z,7.57
2017-12-03T16:44:49.262Z,5.40
2017-12-03T16:47:19.104Z,5.50
2017-12-03T16:49:48.965Z,4.87
2017-12-03T16:52:18.727Z,3.93
2017-12-03T16:54:48.422Z,4.27
2017-12-03T16:57:18.054Z,4.00
2017-12-03T16:59:48.530Z,4.97
2017-12-03T17:02:18.138Z,6.33
2017-12-03T17:04:47.636Z,5.00
2017-12-03T17:07:17.160Z,6.67
2017-12-03T17:09:46.930Z,5.83
2017-12-03T17:12:16.692Z,4.00
2017-12-03T17:14:46.375Z,5.20
2017-12-03T17:17:16.191Z,4.83
2017-12-03T17:19:45.975Z,4.25
2017-12-03T17:22:15.836Z,4.20
2017-12-03T17:24:45.804Z,4.87
2017-12-03T17:27:15.787Z,3.80
2017-12-03T17:29:45.556Z,3.57
2017-12-03T17:32:15.296Z,3.87
2017-12-03T17:34:45.110Z,3.90
2017-12-03T17:37:14.862Z,6.30
2017-12-03T17:39:45.391Z,6.25
2017-12-03T17:42:15.200Z,7.33
2017-12-03T17:44:45.034Z,7.07
2017-12-03T17:47:14.820Z,4.60
2017-12-03T17:49:45.173Z,5.40
2017-12-03T17:52:15.816Z,5.57
2017-12-03T17:54:46.673Z,7.10
2017-12-03T17:57:16.498Z,4.63
2017-12-03T17:59:46.356Z,5.62
2017-12-03T18:02:16.079Z,7.50
2017-12-03T18:04:45.891Z,5.70
2017-12-03T18:07:15.768Z,3.00
2017-12-03T18:09:45.554Z,5.03
2017-12-03T18:12:15.410Z,3.70
2017-12-03T18:14:45.159Z,5.70
2017-12-03T18:17:15.036Z,4.40
2017-12-03T18:19:44.947Z,4.93
2017-12-03T18:22:15.635Z,3.77
2017-12-03T18:24:45.699Z,5.20
2017-12-03T18:27:15.720Z,4.53
2017-12-03T18:29:46.002Z,5.83
2017-12-03T18:32:15.985Z,4.77
2017-12-03T18:34:46.008Z,3.67
2017-12-03T18:37:15.922Z,6.13
2017-12-03T18:39:45.978Z,10.23
2017-12-03T18:42:16.038Z,7.10
2017-12-03T18:44:46.074Z,7.20
2017-12-03T18:47:21.395Z,4.70
2017-12-03T18:49:53.462Z,4.40
2017-12-03T18:52:23.398Z,3.97
2017-12-03T18:54:54.395Z,4.83
2017-12-03T18:57:25.225Z,3.23
2017-12-03T18:59:55.320Z,3.00
2017-12-03T19:02:25.295Z,5.10
2017-12-03T19:04:55.338Z,4.83
2017-12-03T19:07:25.513Z,3.10
2017-12-03T19:09:55.422Z,3.47
2017-12-03T19:12:25.341Z,4.37
2017-12-03T19:14:55.208Z,6.27
2017-12-03T19:17:25.043Z,2.90
2017-12-03T19:19:54.876Z,3.77
2017-12-03T19:22:25.475Z,5.90
2017-12-03T19:24:57.164Z,4.33
2017-12-03T19:27:28.239Z,5.57
2017-12-03T19:29:58.056Z,6.00
2017-12-03T19:32:28.259Z,4.13
2017-12-03T19:35:00.661Z,4.63
2017-12-03T19:37:31.337Z,7.00
2017-12-03T19:40:03.355Z,7.40
2017-12-03T19:42:33.224Z,5.80
2017-12-03T19:45:03.133Z,6.83
2017-12-03T19:47:33.101Z,4.93
2017-12-03T19:50:03.789Z,5.47
2017-12-03T19:52:34.111Z,3.40
2017-12-03T19:55:04.071Z,9.37
2017-12-03T19:57:33.933Z,3.43
2017-12-03T20:00:03.911Z,3.50
2017-12-03T20:02:34.035Z,4.60
2017-12-03T20:05:04.148Z,3.20
2017-12-03T20:07:34.209Z,4.27
2017-12-03T20:10:05.775Z,4.20
2017-12-03T20:12:35.999Z,4.10
2017-12-03T20:15:05.891Z,3.80
2017-12-03T20:17:36.704Z,5.37
2017-12-03T20:20:07.515Z,2.05
2017-12-03T20:22:37.690Z,3.03
2017-12-03T20:25:07.724Z,2.45
2017-12-03T20:27:37.843Z,2.37
2017-12-03T20:30:08.026Z,3.50
2017-12-03T20:32:38.115Z,3.17
2017-12-03T20:35:08.287Z,3.37
2017-12-03T20:37:38.365Z,2.70
2017-12-03T20:40:13.635Z,2.67
2017-12-03T20:42:44.365Z,4.20
2017-12-03T20:45:14.401Z,2.90
2017-12-03T20:47:44.494Z,4.00
2017-12-03T20:50:14.539Z,2.70
2017-12-03T20:52:44.455Z,5.70
2017-12-03T20:55:15.268Z,3.77
2017-12-03T20:57:45.540Z,4.75
2017-12-03T21:00:15.552Z,3.30
2017-12-03T21:02:45.552Z,4.00
2017-12-03T21:05:15.552Z,2.33
2017-12-03T21:07:45.438Z,2.58
2017-12-03T21:10:16.142Z,3.63
2017-12-03T21:12:46.121Z,2.80
2017-12-03T21:15:16.169Z,5.30
2017-12-03T21:17:46.153Z,6.13
2017-12-03T21:20:15.962Z,6.33
2017-12-03T21:22:46.588Z,5.30
2017-12-03T21:25:16.451Z,5.77
2017-12-03T21:27:46.937Z,6.03
2017-12-03T21:30:17.765Z,2.60
2017-12-03T21:32:48.467Z,4.12
2017-12-03T21:35:18.338Z,4.00
2017-12-03T21:37:49.055Z,6.25
2017-12-03T21:40:19.546Z,3.20
2017-12-03T21:42:50.055Z,2.20
2017-12-03T21:45:19.951Z,2.70
2017-12-03T21:47:50.488Z,2.92
2017-12-03T21:50:20.020Z,3.30
2017-12-03T21:52:49.493Z,3.70
2017-12-03T21:55:18.944Z,3.10
2017-12-03T21:57:48.061Z,3.90
2017-12-03T22:00:18.186Z,5.27
2017-12-03T22:02:46.643Z,3.17
2017-12-03T22:05:14.952Z,11.17
2017-12-03T22:07:43.292Z,16.13
2017-12-03T22:10:11.593Z,14.20
2017-12-03T22:12:39.899Z,9.83
2017-12-03T22:15:08.197Z,16.55
2017-12-03T22:17:36.518Z,16.27
2017-12-03T22:20:04.816Z,15.57
2017-12-03T22:22:33.106Z,11.23
2017-12-03T22:25:01.397Z,11.93
2017-12-03T22:27:29.744Z,7.37
2017-12-03T22:29:58.036Z,7.82
2017-12-03T22:32:26.321Z,8.10
2017-12-03T22:34:54.604Z,5.53
2017-12-03T22:37:22.882Z,9.77
2017-12-03T22:39:51.179Z,5.93
2017-12-03T22:42:19.884Z,7.07
2017-12-03T22:44:48.277Z,9.00
2017-12-03T22:47:16.559Z,15.40
2017-12-03T22:49:44.832Z,9.50
2017-12-03T22:52:13.178Z,4.60
2017-12-03T22:54:41.465Z,2.90
2017-12-03T22:57:09.761Z,2.40
2017-12-03T22:59:38.045Z,1.43
2017-12-03T23:02:06.332Z,4.40
2017-12-03T23:04:34.631Z,12.57
2017-12-03T23:07:02.952Z,5.70
2017-12-03T23:09:31.252Z,7.40
2017-12-03T23:11:59.556Z,6.28
2017-12-03T23:14:27.841Z,6.47
2017-12-03T23:16:56.123Z,4.12
2017-12-03T23:19:25.159Z,2.77
2017-12-03T23:21:53.617Z,2.27
2017-12-03T23:24:27.145Z,2.25
2017-12-03T23:26:55.419Z,4.20
2017-12-03T23:29:23.704Z,4.37
2017-12-03T23:31:51.985Z,4.30
2017-12-03T23:34:20.279Z,6.00
2017-12-03T23:36:48.764Z,1.50
2017-12-03T23:39:17.085Z,1.73
2017-12-03T23:41:45.365Z,1.10
2017-12-03T23:44:13.654Z,3.00
2017-12-03T23:46:41.958Z,5.53
2017-12-03T23:49:10.243Z,3.85
2017-12-03T23:51:38.561Z,4.57
2017-12-03T23:54:06.844Z,1.80
2017-12-03T23:56:35.130Z,2.43
2017-12-03T23:59:03.413Z,1.83
